Time;durP1;ratioP1;P1;durP2;ratioP2;P2;SDS_P1;SDS_P2;PMS_P1;PMS_P2;Temp;Humidity;BMP_temperature;BMP_pressure;BME280_temperature;BME280_humidity;BME280_pressure;Samples;Min_cycle;Max_cycle;Signal;HPM_P1;HPM_P2
2022/01/08 00:01:43;;;;;;;2.73;2.33;;;7.50;77.50;6.80;96108.00;;;;5033318;28;20754;-85
2022/01/08 00:04:10;;;;;;;2.40;2.20;;;6.80;77.00;6.80;96105.00;;;;5041604;28;20736;-85
2022/01/08 00:06:37;;;;;;;2.43;2.23;;;6.80;77.00;6.90;96106.00;;;;5033831;28;20284;-85
2022/01/08 00:09:04;;;;;;;2.43;2.20;;;6.80;76.90;6.90;96109.00;;;;5033509;28;20197;-85
2022/01/08 00:11:31;;;;;;;2.23;2.00;;;6.80;76.70;6.90;96106.00;;;;5039032;28;20200;-84
2022/01/08 00:14:04;;;;;;;1.77;1.67;;;6.90;76.90;6.90;96100.00;;;;5053143;28;20201;-84
2022/01/08 00:16:33;;;;;;;2.30;2.10;;;6.90;77.40;6.90;96094.00;;;;5053113;28;20192;-84
2022/01/08 00:19:00;;;;;;;2.00;1.90;;;6.90;76.50;6.90;96076.00;;;;5053167;28;20189;-85
2022/01/08 00:21:27;;;;;;;1.60;1.50;;;6.90;76.50;6.80;96081.00;;;;5034134;28;20208;-85
2022/01/08 00:23:54;;;;;;;2.03;1.93;;;6.90;76.50;6.80;96083.00;;;;5049962;28;20307;-84
2022/01/08 00:26:21;;;;;;;1.90;1.73;;;7.00;77.10;6.80;96082.00;;;;5033372;28;20193;-84
2022/01/08 00:28:48;;;;;;;1.63;1.53;;;6.90;76.30;6.80;96087.00;;;;5050308;28;20189;-85
2022/01/08 00:31:16;;;;;;;1.90;1.80;;;6.90;76.30;6.80;96081.00;;;;5052631;28;20557;-84
2022/01/08 00:33:43;;;;;;;2.00;1.90;;;6.90;76.30;6.80;96080.00;;;;5052815;28;20208;-85
2022/01/08 00:36:11;;;;;;;2.40;2.20;;;6.90;76.30;6.90;96082.00;;;;5052997;28;20204;-84
2022/01/08 00:38:38;;;;;;;1.90;1.80;;;6.90;76.10;6.90;96077.00;;;;5053196;28;20200;-85
2022/01/08 00:41:05;;;;;;;1.80;1.70;;;6.90;76.20;6.90;96079.00;;;;5052569;28;20219;-85
2022/01/08 00:43:32;;;;;;;1.80;1.70;;;6.90;76.20;6.90;96078.00;;;;5053046;28;20315;-85
2022/01/08 00:45:59;;;;;;;1.87;1.73;;;6.90;76.30;6.90;96067.00;;;;5053460;28;20196;-85
2022/01/08 00:48:27;;;;;;;1.97;1.80;;;6.90;76.20;7.00;96069.00;;;;5056944;28;20193;-85
2022/01/08 00:50:55;;;;;;;2.00;1.47;;;6.90;76.20;7.00;96069.00;;;;5052844;28;20228;-85
2022/01/08 00:53:22;;;;;;;1.80;1.50;;;7.00;76.20;7.00;96065.00;;;;5052699;28;20192;-85
2022/01/08 00:55:49;;;;;;;1.77;1.67;;;7.00;76.30;7.00;96066.00;;;;5052718;28;20196;-84
2022/01/08 00:58:16;;;;;;;1.70;1.60;;;7.00;76.30;7.00;96056.00;;;;5052368;28;20203;-85
2022/01/08 01:00:43;;;;;;;1.93;1.77;;;7.00;76.20;7.10;96054.00;;;;5032513;28;20224;-84
2022/01/08 01:03:10;;;;;;;1.60;1.50;;;7.00;76.10;7.10;96043.00;;;;5034638;28;20231;-85
2022/01/08 01:05:39;;;;;;;1.57;1.47;;;7.00;76.90;7.10;96043.00;;;;5052023;28;20196;-84
2022/01/08 01:08:07;;;;;;;1.70;1.60;;;7.00;76.00;7.10;96039.00;;;;5052586;28;20217;-85
2022/01/08 01:10:34;;;;;;;1.53;1.43;;;7.00;76.00;7.00;96036.00;;;;5052030;28;20221;-85
2022/01/08 01:13:01;;;;;;;1.47;1.37;;;7.00;75.90;7.00;96035.00;;;;5052712;28;20791;-85
2022/01/08 01:15:28;;;;;;;3.10;1.90;;;7.00;75.70;7.00;96033.00;;;;5052528;28;20196;-85
2022/01/08 01:17:55;;;;;;;1.77;1.67;;;7.00;75.30;7.00;96027.00;;;;5051998;28;20676;-85
2022/01/08 01:20:23;;;;;;;1.87;1.77;;;7.00;75.40;7.00;96034.00;;;;5052641;28;20228;-85
2022/01/08 01:22:57;;;;;;;1.83;1.73;;;7.00;75.20;6.90;96028.00;;;;5056768;28;20216;-84
2022/01/08 01:25:29;;;;;;;1.60;1.50;;;6.90;75.10;6.90;96021.00;;;;5052069;28;20621;-85
2022/01/08 01:28:03;;;;;;;1.57;1.47;;;6.90;75.00;6.90;96022.00;;;;5052157;28;20208;-85
2022/01/08 01:41:40;;;;;;;1.60;1.50;;;6.60;74.00;6.40;95994.00;;;;5051759;28;20192;-84
2022/01/08 01:47:01;;;;;;;1.57;1.37;;;6.60;73.80;6.20;95980.00;;;;5051562;28;20648;-85
2022/01/08 01:49:28;;;;;;;1.70;1.60;;;6.30;73.70;6.10;95981.00;;;;5052163;28;20232;-85
2022/01/08 01:51:56;;;;;;;1.70;1.60;;;6.30;73.60;6.10;95987.00;;;;5052368;28;20196;-85
2022/01/08 01:54:24;;;;;;;2.03;1.70;;;6.20;73.50;6.00;95960.00;;;;5050345;28;20200;-85
2022/01/08 01:56:51;;;;;;;1.90;1.80;;;6.20;73.70;5.90;95959.00;;;;5051010;28;20207;-84
2022/01/08 01:59:18;;;;;;;1.63;1.53;;;6.10;73.70;5.90;95957.00;;;;5031290;28;20217;-85
2022/01/08 02:01:45;;;;;;;1.90;1.80;;;6.00;73.70;5.80;95953.00;;;;5032177;28;20201;-85
2022/01/08 02:04:12;;;;;;;1.87;1.40;;;6.00;73.50;5.70;95944.00;;;;5048733;28;20303;-85
2022/01/08 02:06:39;;;;;;;1.77;1.43;;;5.90;73.60;5.70;95945.00;;;;5051989;28;20197;-85
2022/01/08 02:09:06;;;;;;;1.67;1.57;;;5.80;73.70;5.60;95937.00;;;;5051707;28;20208;-85
2022/01/08 02:11:35;;;;;;;1.73;1.63;;;5.80;73.90;5.60;95921.00;;;;5052075;28;20189;-85
2022/01/08 02:14:03;;;;;;;1.70;1.60;;;5.70;74.10;5.60;95924.00;;;;5051253;28;20673;-84
2022/01/08 02:16:31;;;;;;;1.87;1.70;;;5.70;74.30;5.50;95930.00;;;;5051422;28;20200;-85
2022/01/08 02:18:58;;;;;;;1.80;1.70;;;5.60;74.40;5.50;95915.00;;;;5051494;28;20743;-85
2022/01/08 02:21:28;;;;;;;1.90;1.80;;;5.60;74.60;5.50;95914.00;;;;5051397;28;20205;-85
2022/01/08 02:23:55;;;;;;;1.90;1.80;;;5.60;74.70;5.50;95917.00;;;;5051584;28;20335;-85
2022/01/08 02:26:22;;;;;;;1.67;1.50;;;5.60;74.70;5.50;95914.00;;;;5051498;28;20220;-85
2022/01/08 02:28:49;;;;;;;1.70;1.60;;;5.50;74.70;5.40;95915.00;;;;5051765;28;20204;-85
2022/01/08 02:31:24;;;;;;;1.70;1.60;;;5.50;74.80;5.50;95905.00;;;;5051899;28;20197;-85
2022/01/08 02:33:53;;;;;;;2.13;2.00;;;5.50;75.00;5.40;95903.00;;;;5055774;28;20204;-85
2022/01/08 02:36:20;;;;;;;2.43;1.60;;;5.50;75.20;5.40;95896.00;;;;5051560;28;20280;-85
2022/01/08 02:38:49;;;;;;;2.03;1.80;;;5.40;75.20;5.40;95889.00;;;;5052022;28;20658;-86
2022/01/08 02:41:17;;;;;;;1.97;1.80;;;5.50;75.20;5.40;95882.00;;;;5054376;28;20231;-85
2022/01/08 02:43:46;;;;;;;1.80;1.70;;;5.50;75.00;5.30;95879.00;;;;5055392;28;20233;-85
2022/01/08 02:46:13;;;;;;;1.87;1.77;;;5.40;74.80;5.30;95874.00;;;;5056837;28;20184;-84
2022/01/08 02:48:40;;;;;;;2.00;1.90;;;5.40;74.90;5.30;95874.00;;;;5055467;28;20197;-84
2022/01/08 02:51:07;;;;;;;1.70;1.60;;;5.40;74.80;5.20;95865.00;;;;5054261;28;20266;-85
2022/01/08 02:53:34;;;;;;;1.67;1.57;;;5.40;74.70;5.20;95872.00;;;;5054941;28;20224;-84
2022/01/08 02:56:03;;;;;;;1.87;1.77;;;5.30;74.60;5.10;95858.00;;;;5054955;28;20280;-85
2022/01/08 02:58:31;;;;;;;1.97;1.87;;;5.30;74.40;5.10;95856.00;;;;5054251;28;20688;-84
2022/01/08 03:00:58;;;;;;;1.87;1.77;;;5.20;74.30;5.00;95851.00;;;;5054943;28;20217;-85
2022/01/08 03:03:26;;;;;;;2.20;2.00;;;5.20;74.30;5.00;95841.00;;;;5054628;28;20701;-85
2022/01/08 03:05:53;;;;;;;1.90;1.80;;;5.10;74.20;4.90;95838.00;;;;5061323;28;20207;-85
2022/01/08 03:08:20;;;;;;;2.03;1.70;;;5.30;75.00;4.90;95828.00;;;;5058703;28;20177;-85
2022/01/08 03:10:47;;;;;;;1.67;1.57;;;5.10;74.10;4.80;95824.00;;;;5055148;28;20243;-85
2022/01/08 03:13:16;;;;;;;1.77;1.67;;;5.00;74.90;4.80;95823.00;;;;5054023;28;20215;-85
2022/01/08 03:15:43;;;;;;;1.90;1.80;;;5.00;74.20;4.80;95820.00;;;;5054386;28;20550;-85
2022/01/08 03:18:10;;;;;;;1.90;1.73;;;4.90;74.10;4.70;95825.00;;;;5054897;28;20534;-85
2022/01/08 03:20:46;;;;;;;2.37;1.70;;;4.90;74.80;4.70;95819.00;;;;5054660;28;20605;-84
2022/01/08 03:23:16;;;;;;;2.10;2.00;;;5.00;74.10;4.60;95809.00;;;;5046816;28;20225;-85
2022/01/08 03:25:43;;;;;;;2.13;1.80;;;4.80;74.00;4.60;95805.00;;;;5050071;28;20189;-85
2022/01/08 03:28:11;;;;;;;1.73;1.63;;;4.70;74.70;4.50;95808.00;;;;5054007;28;20566;-85
2022/01/08 03:30:40;;;;;;;1.60;1.50;;;4.70;74.00;4.50;95806.00;;;;5054475;28;20212;-85
2022/01/08 03:33:07;;;;;;;1.77;1.67;;;4.70;74.20;4.50;95805.00;;;;5053745;28;20662;-85
2022/01/08 03:35:34;;;;;;;1.43;1.33;;;4.60;74.10;4.40;95798.00;;;;5051390;28;20194;-85
2022/01/08 03:38:01;;;;;;;1.60;1.50;;;4.60;74.30;4.40;95790.00;;;;5046123;28;20197;-85
2022/01/08 03:40:28;;;;;;;1.60;1.47;;;4.50;74.30;4.30;95786.00;;;;5054160;28;20456;-85
2022/01/08 03:42:55;;;;;;;2.30;1.60;;;4.50;74.40;4.30;95795.00;;;;5052955;28;20201;-85
2022/01/08 03:45:23;;;;;;;1.60;1.50;;;4.50;74.60;4.30;95791.00;;;;5044631;28;20228;-85
2022/01/08 03:48:06;;;;;;;1.43;1.33;;;4.50;74.80;4.30;95784.00;;;;5048836;28;20197;-84
2022/01/08 03:50:34;;;;;;;1.70;1.60;;;4.50;74.80;4.30;95776.00;;;;5039672;28;20223;-85
2022/01/08 03:53:01;;;;;;;1.50;1.33;;;4.50;74.80;4.30;95772.00;;;;5050322;28;20196;-85
2022/01/08 03:55:29;;;;;;;1.50;1.40;;;4.50;74.70;4.30;95763.00;;;;5049795;28;20199;-85
2022/01/08 03:57:56;;;;;;;1.50;1.40;;;4.40;74.70;4.20;95764.00;;;;5048414;28;20714;-85
2022/01/08 04:00:23;;;;;;;1.60;1.50;;;4.50;74.70;4.20;95761.00;;;;5044246;28;20205;-85
2022/01/08 04:02:53;;;;;;;1.50;1.40;;;4.40;74.70;4.20;95766.00;;;;5053073;28;20201;-85
2022/01/08 04:05:21;;;;;;;1.70;1.60;;;4.40;74.80;4.20;95755.00;;;;5052712;28;20213;-85
2022/01/08 04:07:48;;;;;;;1.83;1.73;;;4.40;74.80;4.20;95757.00;;;;5043953;28;20200;-85
2022/01/08 04:10:15;;;;;;;1.50;1.40;;;4.40;74.90;4.20;95759.00;;;;5044520;28;20584;-85
2022/01/08 04:12:45;;;;;;;1.53;1.43;;;4.40;75.10;4.20;95745.00;;;;5036570;28;20195;-84
2022/01/08 04:15:33;;;;;;;1.57;1.27;;;4.40;75.00;4.20;95745.00;;;;5053088;28;20191;-84
2022/01/08 04:18:01;;;;;;;1.50;1.40;;;4.40;75.00;4.20;95751.00;;;;5033168;28;20177;-85
2022/01/08 04:20:28;;;;;;;1.50;1.40;;;4.50;75.10;4.20;95742.00;;;;5033144;28;20255;-85
2022/01/08 04:22:55;;;;;;;1.40;1.30;;;4.40;75.20;4.20;95751.00;;;;5041830;28;20188;-85
2022/01/08 04:25:24;;;;;;;1.70;1.60;;;4.40;75.40;4.20;95743.00;;;;5052477;28;20216;-85
2022/01/08 04:27:52;;;;;;;2.00;1.20;;;4.40;75.20;4.20;95742.00;;;;5053092;28;20200;-85
2022/01/08 04:30:19;;;;;;;1.40;1.30;;;4.40;75.20;4.20;95735.00;;;;5052414;28;20212;-85
2022/01/08 04:32:47;;;;;;;1.57;1.47;;;4.40;75.10;4.20;95732.00;;;;5052743;28;20208;-85
2022/01/08 04:35:15;;;;;;;2.50;1.47;;;4.40;75.00;4.20;95730.00;;;;5052065;28;20204;-85
2022/01/08 04:37:42;;;;;;;1.63;1.30;;;4.40;74.90;4.20;95726.00;;;;5052774;28;20197;-85
2022/01/08 04:40:10;;;;;;;1.60;1.50;;;4.40;74.80;4.20;95726.00;;;;5052388;28;20223;-85
2022/01/08 04:42:37;;;;;;;1.50;1.30;;;4.30;74.70;4.20;95726.00;;;;5052334;28;20196;-85
2022/01/08 04:45:06;;;;;;;1.43;1.33;;;4.30;74.80;4.20;95725.00;;;;5052141;28;20217;-85
2022/01/08 04:47:33;;;;;;;1.83;1.73;;;4.30;74.80;4.10;95721.00;;;;5052286;28;20205;-85
2022/01/08 04:50:00;;;;;;;2.50;1.60;;;4.30;74.90;4.10;95716.00;;;;5052524;28;20221;-85
2022/01/08 04:52:28;;;;;;;1.70;1.60;;;4.30;75.00;4.10;95714.00;;;;5052146;28;20201;-85
2022/01/08 04:54:55;;;;;;;1.93;1.83;;;4.30;74.90;4.10;95704.00;;;;5042449;28;20212;-85
2022/01/08 04:57:22;;;;;;;1.73;1.63;;;4.30;75.00;4.10;95704.00;;;;5052774;28;20197;-85
2022/01/08 04:59:50;;;;;;;2.00;1.90;;;4.30;75.00;4.10;95699.00;;;;5052452;28;20618;-84
2022/01/08 05:02:17;;;;;;;1.80;1.70;;;4.30;74.90;4.10;95702.00;;;;5051437;28;20200;-85
2022/01/08 05:04:44;;;;;;;1.73;1.63;;;4.30;74.90;4.00;95707.00;;;;5051751;28;20216;-85
2022/01/08 05:07:11;;;;;;;1.70;1.60;;;4.20;74.90;4.00;95703.00;;;;5052720;28;20200;-85
2022/01/08 05:09:39;;;;;;;1.50;1.40;;;4.20;75.00;4.00;95703.00;;;;5052201;28;20224;-85
2022/01/08 05:12:08;;;;;;;1.70;1.60;;;4.30;75.10;4.00;95710.00;;;;5052043;28;20196;-85
2022/01/08 05:14:35;;;;;;;1.80;1.70;;;4.20;74.90;4.00;95717.00;;;;5051908;28;20201;-85
2022/01/08 05:17:02;;;;;;;1.70;1.57;;;4.20;75.10;4.00;95722.00;;;;5051805;28;20193;-85
2022/01/08 05:19:42;;;;;;;1.83;1.60;;;4.20;75.20;4.10;95725.00;;;;5051815;28;20220;-85
2022/01/08 05:22:17;;;;;;;1.70;1.60;;;4.20;75.30;4.10;95728.00;;;;5051361;28;20196;-85
2022/01/08 05:24:45;;;;;;;2.00;1.90;;;4.20;75.40;4.10;95730.00;;;;5051634;28;20220;-85
2022/01/08 05:27:17;;;;;;;2.33;2.00;;;4.30;75.50;4.10;95756.00;;;;5052268;28;20196;-85
2022/01/08 05:29:44;;;;;;;1.70;1.60;;;4.30;75.60;4.20;95793.00;;;;5054850;28;20220;-85
2022/01/08 05:32:16;;;;;;;2.10;1.90;;;4.30;75.80;4.20;95783.00;;;;5051098;28;20197;-84
2022/01/08 05:34:44;;;;;;;1.80;1.70;;;4.30;75.80;4.20;95773.00;;;;5051628;28;20211;-85
2022/01/08 05:37:11;;;;;;;1.60;1.50;;;4.30;75.80;4.20;95776.00;;;;5051577;28;20250;-85
2022/01/08 05:39:39;;;;;;;1.50;1.40;;;4.30;76.00;4.20;95762.00;;;;5052041;28;20213;-84
2022/01/08 05:42:08;;;;;;;1.53;1.43;;;4.40;76.20;4.30;95756.00;;;;5052817;28;20196;-85
2022/01/08 05:44:35;;;;;;;2.03;1.90;;;4.40;76.30;4.30;95752.00;;;;5051686;28;20701;-85
2022/01/08 05:47:02;;;;;;;1.57;1.47;;;4.40;76.50;4.40;95750.00;;;;5051356;28;20270;-85
2022/01/08 05:49:30;;;;;;;1.63;1.53;;;4.50;76.60;4.40;95745.00;;;;5051283;28;20621;-85
2022/01/08 05:51:57;;;;;;;1.57;1.47;;;4.50;76.70;4.40;95743.00;;;;5051565;28;20196;-85
2022/01/08 05:54:24;;;;;;;1.30;1.20;;;4.50;76.60;4.50;95738.00;;;;5050819;28;20196;-85
2022/01/08 05:56:51;;;;;;;1.50;1.40;;;4.60;76.70;4.50;95734.00;;;;5051646;28;20193;-85
2022/01/08 05:59:21;;;;;;;2.10;1.90;;;4.60;77.00;4.50;95735.00;;;;5051633;28;20250;-85
2022/01/08 06:01:48;;;;;;;1.80;1.70;;;4.60;77.00;4.60;95735.00;;;;5051771;28;20232;-85
2022/01/08 06:04:15;;;;;;;2.10;1.90;;;4.70;77.00;4.60;95736.00;;;;5052246;28;20217;-85
2022/01/08 06:06:43;;;;;;;2.10;1.90;;;4.70;76.90;4.60;95737.00;;;;5043571;28;20567;-85
2022/01/08 06:09:10;;;;;;;2.77;2.40;;;4.70;76.80;4.70;95738.00;;;;5051370;28;20208;-85
2022/01/08 06:11:38;;;;;;;2.37;2.10;;;4.80;76.90;4.70;95739.00;;;;5051406;28;20193;-85
2022/01/08 06:14:05;;;;;;;2.50;2.30;;;4.80;77.10;4.80;95745.00;;;;5054284;28;20203;-85
2022/01/08 06:16:36;;;;;;;2.73;2.10;;;4.80;77.10;4.80;95752.00;;;;5055140;28;20222;-85
2022/01/08 06:19:06;;;;;;;1.53;1.43;;;4.90;77.30;4.90;95748.00;;;;5055323;28;20282;-85
2022/01/08 06:21:33;;;;;;;1.93;1.83;;;4.90;77.40;4.90;95748.00;;;;5054972;28;20624;-85
2022/01/08 06:24:00;;;;;;;1.77;1.53;;;5.00;77.40;5.00;95757.00;;;;5055311;28;20200;-85
2022/01/08 06:26:27;;;;;;;1.50;1.40;;;5.00;77.50;5.00;95759.00;;;;5055008;28;20208;-85
2022/01/08 06:28:54;;;;;;;1.77;1.50;;;5.00;77.40;5.10;95769.00;;;;5054822;28;20211;-85
2022/01/08 06:31:23;;;;;;;1.60;1.50;;;5.10;77.50;5.10;95769.00;;;;5054141;28;20576;-85
2022/01/08 06:33:52;;;;;;;1.20;1.20;;;5.10;77.40;5.10;95757.00;;;;5055127;28;20279;-84
2022/01/08 06:36:22;;;;;;;0.70;0.70;;;5.20;77.40;5.10;95756.00;;;;5045953;28;20233;-85
2022/01/08 06:38:50;;;;;;;1.03;0.90;;;5.20;77.40;5.20;95741.00;;;;5035090;28;20205;-84
2022/01/08 06:41:17;;;;;;;1.00;0.97;;;5.20;77.40;5.20;95745.00;;;;5035390;28;20204;-85
2022/01/08 06:43:45;;;;;;;1.10;1.10;;;5.20;77.40;5.20;95731.00;;;;5045508;28;20214;-85
2022/01/08 06:46:12;;;;;;;1.10;1.00;;;5.20;77.40;5.20;95735.00;;;;5034115;28;20225;-85
2022/01/08 06:48:40;;;;;;;1.13;1.03;;;5.30;77.60;5.20;95729.00;;;;5049179;28;20268;-85
2022/01/08 06:51:09;;;;;;;0.80;0.80;;;5.30;77.70;5.20;95728.00;;;;5053882;28;20228;-85
2022/01/08 06:53:36;;;;;;;0.90;0.90;;;5.30;77.90;5.20;95734.00;;;;5054586;28;20207;-84
2022/01/08 06:56:04;;;;;;;1.60;1.07;;;5.30;77.90;5.30;95734.00;;;;5054419;28;20206;-85
2022/01/08 06:58:31;;;;;;;1.00;1.00;;;5.30;78.00;5.30;95737.00;;;;5054855;28;20203;-85
2022/01/08 07:00:58;;;;;;;0.97;0.73;;;5.40;78.20;5.30;95738.00;;;;5054245;28;20709;-85
2022/01/08 07:03:25;;;;;;;0.87;0.80;;;5.40;78.20;5.40;95735.00;;;;5052176;28;20900;-85
2022/01/08 07:05:52;;;;;;;0.90;0.90;;;5.40;78.20;5.40;95738.00;;;;5037322;28;20576;-85
2022/01/08 07:08:20;;;;;;;0.70;0.70;;;5.40;78.10;5.40;95742.00;;;;5048214;28;20196;-85
2022/01/08 07:10:47;;;;;;;0.93;0.70;;;5.50;78.20;5.40;95734.00;;;;5054670;28;20212;-85
2022/01/08 07:13:16;;;;;;;0.50;0.50;;;5.50;78.10;5.50;95735.00;;;;5054635;28;20211;-84
2022/01/08 07:15:43;;;;;;;0.67;0.57;;;5.50;78.10;5.50;95736.00;;;;5057381;28;20197;-85
2022/01/08 07:18:10;;;;;;;0.60;0.60;;;5.50;78.10;5.50;95735.00;;;;5054720;28;20196;-85
2022/01/08 07:20:37;;;;;;;0.53;0.53;;;5.60;78.20;5.60;95743.00;;;;5048233;28;20216;-85
2022/01/08 07:23:04;;;;;;;0.70;0.70;;;5.70;78.20;5.70;95743.00;;;;5034900;28;20193;-85
2022/01/08 07:25:33;;;;;;;1.07;0.60;;;5.60;78.30;5.80;95747.00;;;;5038014;28;20701;-85
2022/01/08 07:28:00;;;;;;;0.87;0.53;;;5.70;78.40;5.90;95745.00;;;;5045253;28;20197;-86
2022/01/08 07:30:27;;;;;;;0.90;0.50;;;5.70;78.30;5.90;95752.00;;;;5034252;28;20228;-85
2022/01/08 07:32:54;;;;;;;0.50;0.50;;;5.80;78.40;6.00;95746.00;;;;5034220;28;20209;-86
2022/01/08 07:35:23;;;;;;;0.40;0.40;;;5.80;78.40;6.00;95743.00;;;;5038831;28;20196;-85
2022/01/08 07:37:53;;;;;;;0.60;0.50;;;5.80;78.30;6.10;95752.00;;;;5053408;28;20201;-85
2022/01/08 07:40:22;;;;;;;0.50;0.50;;;5.90;78.30;6.20;95751.00;;;;5053784;28;20303;-85
2022/01/08 07:42:52;;;;;;;0.53;0.53;;;6.00;78.30;6.20;95740.00;;;;5041350;28;20204;-86
2022/01/08 07:45:20;;;;;;;3.83;0.63;;;6.00;78.20;6.20;95752.00;;;;5052746;28;20223;-85
2022/01/08 07:47:48;;;;;;;0.40;0.40;;;6.00;78.20;6.30;95752.00;;;;5053917;28;20207;-84
2022/01/08 07:50:15;;;;;;;0.80;0.70;;;6.00;78.00;6.30;95757.00;;;;5053939;28;20224;-86
2022/01/08 07:52:43;;;;;;;0.67;0.57;;;6.10;78.00;6.40;95755.00;;;;5048771;28;20365;-85
2022/01/08 07:55:12;;;;;;;0.40;0.40;;;6.10;77.90;6.40;95766.00;;;;5033406;28;20197;-84
2022/01/08 07:57:39;;;;;;;1.90;0.70;;;6.20;77.90;6.40;95762.00;;;;5041464;28;20197;-85
2022/01/08 08:00:10;;;;;;;0.60;0.60;;;6.20;78.00;6.50;95754.00;;;;5044853;28;20205;-85
2022/01/08 08:02:37;;;;;;;1.10;0.83;;;6.30;78.00;6.50;95759.00;;;;5053605;28;20220;-85
2022/01/08 08:05:04;;;;;;;0.97;0.87;;;6.30;78.10;6.60;95769.00;;;;5052742;28;20706;-84
2022/01/08 08:07:36;;;;;;;0.83;0.80;;;6.30;78.10;6.60;95767.00;;;;5054176;28;20199;-86
2022/01/08 08:10:07;;;;;;;1.23;0.70;;;6.40;78.20;6.70;95755.00;;;;5053181;28;20299;-87
2022/01/08 08:12:34;;;;;;;0.97;0.70;;;6.40;78.20;6.70;95768.00;;;;5053072;28;20201;-87
2022/01/08 08:15:02;;;;;;;0.60;0.60;;;6.60;78.20;6.80;95759.00;;;;5053184;28;20223;-85
2022/01/08 08:17:30;;;;;;;0.57;0.30;;;6.50;77.90;6.80;95773.00;;;;5052923;28;20204;-86
2022/01/08 08:19:57;;;;;;;0.40;0.40;;;6.60;78.20;6.90;95777.00;;;;5053047;28;20217;-86
2022/01/08 08:22:24;;;;;;;0.40;0.40;;;6.70;78.10;6.90;95779.00;;;;5052930;28;20197;-86
2022/01/08 08:24:51;;;;;;;0.70;0.70;;;6.60;77.90;6.90;95779.00;;;;5052717;28;20192;-85
2022/01/08 08:27:18;;;;;;;0.37;0.37;;;6.80;78.00;7.00;95782.00;;;;5056595;28;20214;-87
2022/01/08 08:29:45;;;;;;;0.30;0.30;;;6.80;77.90;7.00;95787.00;;;;5033941;28;20216;-86
2022/01/08 08:35:45;;;;;;;0.53;0.50;;;6.90;78.20;7.10;95775.00;;;;5040364;28;20219;-87
2022/01/08 08:38:12;;;;;;;0.50;0.40;;;7.10;78.00;7.10;95781.00;;;;5052168;28;20201;-88
2022/01/08 08:40:39;;;;;;;0.53;0.40;;;6.90;78.00;7.10;95776.00;;;;5044132;28;20227;-86
2022/01/08 08:43:06;;;;;;;1.67;0.40;;;7.10;78.10;7.10;95773.00;;;;5038148;28;20208;-86
2022/01/08 08:45:33;;;;;;;0.43;0.43;;;7.00;78.10;7.10;95775.00;;;;5052316;28;20232;-87
2022/01/08 08:48:01;;;;;;;0.50;0.50;;;7.00;78.20;7.10;95790.00;;;;5058502;28;20201;-86
2022/01/08 08:50:28;;;;;;;0.50;0.40;;;7.00;78.30;7.10;95779.00;;;;5054472;28;20224;-88
2022/01/08 08:52:56;;;;;;;0.50;0.50;;;7.00;78.30;7.10;95788.00;;;;5054682;28;20274;-85
2022/01/08 08:55:23;;;;;;;1.00;0.60;;;7.00;78.10;7.10;95795.00;;;;5042941;28;20193;-86
2022/01/08 08:57:50;;;;;;;0.50;0.50;;;7.10;78.20;7.10;95791.00;;;;5039651;28;20195;-86
2022/01/08 09:00:19;;;;;;;0.40;0.40;;;7.00;78.10;7.10;95806.00;;;;5051827;28;20223;-86
2022/01/08 09:02:47;;;;;;;1.27;0.80;;;7.10;78.30;7.20;95809.00;;;;5052126;28;20250;-86
2022/01/08 09:05:16;;;;;;;1.00;0.73;;;7.10;78.40;7.20;95801.00;;;;5051864;28;20239;-86
2022/01/08 09:07:43;;;;;;;1.80;1.20;;;7.10;78.30;7.20;95809.00;;;;5052075;28;20288;-85
2022/01/08 09:10:12;;;;;;;0.93;0.93;;;7.10;78.20;7.20;95806.00;;;;5051465;28;20231;-86
2022/01/08 09:12:41;;;;;;;0.90;0.90;;;7.10;78.30;7.20;95800.00;;;;5051995;28;20205;-87
2022/01/08 09:15:12;;;;;;;0.67;0.67;;;7.10;78.30;7.20;95808.00;;;;5052109;28;20200;-86
2022/01/08 09:17:40;;;;;;;0.53;0.53;;;7.20;78.30;7.20;95824.00;;;;5052255;28;20215;-87
2022/01/08 09:20:10;;;;;;;0.60;0.60;;;7.20;78.40;7.30;95820.00;;;;5052349;28;20224;-87
2022/01/08 09:22:39;;;;;;;0.60;0.60;;;7.20;78.30;7.30;95839.00;;;;5051734;28;20192;-86
2022/01/08 09:25:07;;;;;;;0.43;0.40;;;7.20;78.30;7.30;95844.00;;;;5050721;28;20729;-86
2022/01/08 09:27:34;;;;;;;0.60;0.50;;;7.30;78.30;7.30;95836.00;;;;5051892;28;20200;-85
2022/01/08 09:30:02;;;;;;;0.50;0.50;;;7.30;78.20;7.40;95834.00;;;;5043845;28;20221;-87
2022/01/08 09:32:31;;;;;;;0.43;0.43;;;7.30;78.30;7.40;95854.00;;;;5031938;28;20292;-86
2022/01/08 09:34:58;;;;;;;1.03;0.60;;;7.30;78.20;7.50;95866.00;;;;5048499;28;20208;-87
2022/01/08 09:37:25;;;;;;;0.53;0.40;;;7.40;78.40;7.50;95862.00;;;;5052919;28;20193;-85
2022/01/08 09:39:53;;;;;;;0.60;0.60;;;7.40;78.20;7.50;95879.00;;;;5052404;28;20212;-87
2022/01/08 09:42:21;;;;;;;0.60;0.60;;;7.40;78.20;7.50;95886.00;;;;5051696;28;20677;-87
2022/01/08 09:44:48;;;;;;;0.37;0.37;;;7.50;77.70;7.50;95874.00;;;;5051328;28;20572;-87
2022/01/08 09:47:15;;;;;;;0.50;0.50;;;7.50;77.80;7.60;95868.00;;;;5052035;28;20220;-86
2022/01/08 09:49:42;;;;;;;0.37;0.30;;;7.50;77.60;7.60;95876.00;;;;5055824;28;20217;-90
2022/01/08 09:52:10;;;;;;;0.30;0.30;;;7.50;77.80;7.60;95891.00;;;;5046049;28;20204;-87
2022/01/08 09:54:37;;;;;;;0.43;0.40;;;7.50;77.60;7.60;95894.00;;;;5054365;28;20226;-88
2022/01/08 09:57:06;;;;;;;0.60;0.40;;;7.60;77.80;7.60;95904.00;;;;5055842;28;20195;-88
2022/01/08 09:59:33;;;;;;;0.40;0.40;;;7.60;77.60;7.50;95914.00;;;;5055519;28;20257;-89
2022/01/08 10:02:02;;;;;;;1.10;0.90;;;7.50;77.30;7.50;95906.00;;;;5055708;28;20197;-88
2022/01/08 10:04:33;;;;;;;0.73;0.73;;;7.50;77.10;7.40;95917.00;;;;5054432;28;20668;-89
2022/01/08 10:07:19;;;;;;;1.10;0.67;;;7.50;76.90;7.30;95922.00;;;;5055397;28;20697;-88
2022/01/08 10:10:10;;;;;;;0.50;0.50;;;7.40;77.00;7.20;95920.00;;;;5054216;28;20812;-88
2022/01/08 10:12:48;;;;;;;0.60;0.60;;;7.40;77.10;7.10;95929.00;;;;5053671;28;20611;-90
2022/01/08 10:18:09;;;;;;;0.53;0.53;;;7.20;77.00;7.10;95933.00;;;;5054784;28;20772;-88
2022/01/08 10:20:38;;;;;;;0.47;0.47;;;7.20;77.30;7.00;95934.00;;;;5053174;28;20232;-86
2022/01/08 10:23:17;;;;;;;0.77;0.77;;;7.10;77.50;6.90;95932.00;;;;5054983;28;20203;-86
2022/01/08 10:25:58;;;;;;;0.40;0.40;;;7.10;77.50;6.90;95940.00;;;;5052473;28;20224;-90
2022/01/08 10:28:42;;;;;;;0.50;0.50;;;7.00;77.60;6.80;95938.00;;;;5044634;28;20193;-87
2022/01/08 10:31:15;;;;;;;0.30;0.30;;;7.00;77.50;6.80;95954.00;;;;5055490;28;20216;-86
2022/01/08 10:33:45;;;;;;;0.77;0.77;;;6.90;77.60;6.80;95960.00;;;;5054260;28;20674;-87
2022/01/08 10:36:13;;;;;;;0.60;0.60;;;6.90;77.60;6.80;95966.00;;;;5054589;28;20203;-86
2022/01/08 10:38:40;;;;;;;1.43;0.70;;;6.90;77.60;6.80;95965.00;;;;5054644;28;20193;-86
2022/01/08 10:41:16;;;;;;;1.17;0.67;;;6.90;77.60;6.80;95988.00;;;;5054172;28;20588;-88
2022/01/08 10:43:46;;;;;;;0.93;0.60;;;6.90;77.70;6.80;95965.00;;;;5048361;28;20675;-86
2022/01/08 10:46:16;;;;;;;0.53;0.53;;;6.90;77.60;6.80;95984.00;;;;5053870;28;20594;-87
2022/01/08 10:48:46;;;;;;;0.50;0.50;;;6.90;77.60;6.80;95978.00;;;;5053781;28;20188;-86
2022/01/08 10:51:19;;;;;;;0.73;0.73;;;6.90;77.70;6.90;95979.00;;;;5056245;28;20260;-86
2022/01/08 10:54:04;;;;;;;1.00;0.60;;;6.90;77.90;6.90;95994.00;;;;5055771;28;20196;-86
2022/01/08 10:56:38;;;;;;;0.70;0.67;;;6.90;77.80;6.90;95993.00;;;;5036516;28;20210;-86
2022/01/08 10:59:12;;;;;;;0.70;0.70;;;7.00;77.90;6.90;95988.00;;;;5047602;28;20196;-86
2022/01/08 11:01:44;;;;;;;0.90;0.90;;;6.90;77.80;6.90;96004.00;;;;5041633;28;20193;-85
2022/01/08 11:04:13;;;;;;;0.70;0.70;;;7.00;77.70;6.90;96010.00;;;;5046760;28;20203;-86
2022/01/08 11:07:01;;;;;;;1.33;1.07;;;7.00;77.40;6.90;96005.00;;;;5048035;28;20228;-85
2022/01/08 11:09:29;;;;;;;1.10;0.93;;;7.00;77.20;7.00;96015.00;;;;5049142;28;20247;-86
2022/01/08 11:12:00;;;;;;;0.83;0.83;;;7.00;76.60;7.00;96016.00;;;;5046716;28;20205;-86
2022/01/08 11:17:21;;;;;;;0.80;0.80;;;7.10;77.10;7.10;96020.00;;;;5053912;28;20278;-85
2022/01/08 11:19:53;;;;;;;1.20;1.10;;;7.10;77.00;7.20;96031.00;;;;5054208;28;20235;-85
2022/01/08 11:22:23;;;;;;;2.03;1.30;;;7.10;77.10;7.20;96030.00;;;;5054535;28;20189;-86
2022/01/08 11:25:00;;;;;;;1.30;1.03;;;7.20;77.30;7.30;96026.00;;;;5053313;28;20666;-83
2022/01/08 11:27:49;;;;;;;0.90;0.90;;;7.20;77.10;7.40;96029.00;;;;5044061;28;20221;-85
2022/01/08 11:30:22;;;;;;;1.00;1.00;;;7.30;77.10;7.40;96054.00;;;;5046732;28;20223;-85
2022/01/08 11:32:52;;;;;;;1.50;1.20;;;7.30;77.10;7.50;96047.00;;;;5053777;28;20191;-84
2022/01/08 11:35:22;;;;;;;2.20;0.90;;;7.40;76.70;7.50;96039.00;;;;5053723;28;20654;-84
2022/01/08 11:37:51;;;;;;;1.77;1.23;;;7.40;76.70;7.60;96052.00;;;;5053523;28;20200;-84
2022/01/08 11:40:23;;;;;;;1.20;1.10;;;7.50;76.60;7.60;96050.00;;;;5053926;28;20204;-84